sensor_id;sensor_type;location;lat;lon;timestamp;pressure;altitude;pressure_sealevel;temperature;humidity
57048;BME280;42934;54.294;18.598;2023-02-21T00:02:58;99138.91;;;6.75;70.83
57048;BME280;42934;54.294;18.598;2023-02-21T00:05:44;99139.84;;;6.74;70.72
57048;BME280;42934;54.294;18.598;2023-02-21T00:08:31;99152.09;;;6.72;70.99
57048;BME280;42934;54.294;18.598;2023-02-21T00:11:17;99139.88;;;6.72;70.56
57048;BME280;42934;54.294;18.598;2023-02-21T00:14:05;99140.69;;;6.74;70.31
57048;BME280;42934;54.294;18.598;2023-02-21T00:16:51;99154.59;;;6.73;70.90
57048;BME280;42934;54.294;18.598;2023-02-21T00:19:37;99155.53;;;6.72;69.82
57048;BME280;42934;54.294;18.598;2023-02-21T00:22:24;99152.22;;;6.69;70.37
57048;BME280;42934;54.294;18.598;2023-02-21T00:25:10;99152.91;;;6.72;70.06
57048;BME280;42934;54.294;18.598;2023-02-21T00:27:58;99157.28;;;6.72;70.48
57048;BME280;42934;54.294;18.598;2023-02-21T00:30:46;99163.44;;;6.71;71.01
57048;BME280;42934;54.294;18.598;2023-02-21T00:33:35;99156.44;;;6.71;70.80
57048;BME280;42934;54.294;18.598;2023-02-21T00:36:21;99155.75;;;6.68;71.03
57048;BME280;42934;54.294;18.598;2023-02-21T00:39:08;99156.50;;;6.70;70.62
57048;BME280;42934;54.294;18.598;2023-02-21T00:41:55;99160.94;;;6.68;70.51
57048;BME280;42934;54.294;18.598;2023-02-21T00:44:41;99172.28;;;6.67;70.72
57048;BME280;42934;54.294;18.598;2023-02-21T00:47:29;99161.91;;;6.65;70.71
57048;BME280;42934;54.294;18.598;2023-02-21T00:50:16;99162.88;;;6.63;71.18
57048;BME280;42934;54.294;18.598;2023-02-21T00:53:03;99155.00;;;6.64;70.81
57048;BME280;42934;54.294;18.598;2023-02-21T00:55:49;99142.88;;;6.63;69.99
57048;BME280;42934;54.294;18.598;2023-02-21T00:58:36;99151.63;;;6.62;70.08
57048;BME280;42934;54.294;18.598;2023-02-21T01:01:22;99156.16;;;6.57;71.11
57048;BME280;42934;54.294;18.598;2023-02-21T01:04:10;99143.03;;;6.58;70.05
57048;BME280;42934;54.294;18.598;2023-02-21T01:06:56;99141.44;;;6.56;70.65
57048;BME280;42934;54.294;18.598;2023-02-21T01:09:43;99145.00;;;6.53;70.53
57048;BME280;42934;54.294;18.598;2023-02-21T01:12:29;99149.34;;;6.53;71.32
57048;BME280;42934;54.294;18.598;2023-02-21T01:15:17;99148.47;;;6.54;71.25
57048;BME280;42934;54.294;18.598;2023-02-21T01:18:04;99139.91;;;6.50;71.45
57048;BME280;42934;54.294;18.598;2023-02-21T01:20:52;99145.25;;;6.47;71.55
57048;BME280;42934;54.294;18.598;2023-02-21T01:23:38;99139.13;;;6.48;71.43
57048;BME280;42934;54.294;18.598;2023-02-21T01:26:25;99133.06;;;6.48;71.13
57048;BME280;42934;54.294;18.598;2023-02-21T01:29:11;99147.88;;;6.47;71.60
57048;BME280;42934;54.294;18.598;2023-02-21T01:32:00;99142.66;;;6.47;70.78
57048;BME280;42934;54.294;18.598;2023-02-21T01:34:46;99138.31;;;6.46;70.57
57048;BME280;42934;54.294;18.598;2023-02-21T01:37:33;99129.75;;;6.44;71.18
57048;BME280;42934;54.294;18.598;2023-02-21T01:40:20;99127.19;;;6.43;71.11
57048;BME280;42934;54.294;18.598;2023-02-21T01:43:14;99121.16;;;6.41;71.24
57048;BME280;42934;54.294;18.598;2023-02-21T01:46:00;99116.03;;;6.39;71.36
57048;BME280;42934;54.294;18.598;2023-02-21T01:48:48;99114.31;;;6.38;70.75
57048;BME280;42934;54.294;18.598;2023-02-21T01:51:39;99119.66;;;6.35;70.85
57048;BME280;42934;54.294;18.598;2023-02-21T01:54:30;99116.06;;;6.37;71.37
57048;BME280;42934;54.294;18.598;2023-02-21T01:57:19;99125.63;;;6.39;71.31
57048;BME280;42934;54.294;18.598;2023-02-21T02:00:08;99115.22;;;6.37;70.53
57048;BME280;42934;54.294;18.598;2023-02-21T02:02:57;99116.91;;;6.38;70.72
57048;BME280;42934;54.294;18.598;2023-02-21T02:05:47;99119.66;;;6.35;71.19
57048;BME280;42934;54.294;18.598;2023-02-21T02:08:35;99131.00;;;6.34;70.94
57048;BME280;42934;54.294;18.598;2023-02-21T02:11:38;99121.53;;;6.31;71.52
57048;BME280;42934;54.294;18.598;2023-02-21T02:14:56;99099.72;;;6.34;71.27
57048;BME280;42934;54.294;18.598;2023-02-21T02:17:39;99086.75;;;6.32;71.03
57048;BME280;42934;54.294;18.598;2023-02-21T02:20:35;99124.03;;;6.34;71.40
57048;BME280;42934;54.294;18.598;2023-02-21T02:23:48;99103.38;;;6.30;71.09
57048;BME280;42934;54.294;18.598;2023-02-21T02:29:55;99117.28;;;6.29;70.80
57048;BME280;42934;54.294;18.598;2023-02-21T02:32:41;99111.19;;;6.30;71.86
57048;BME280;42934;54.294;18.598;2023-02-21T02:35:20;99121.75;;;6.27;71.62
57048;BME280;42934;54.294;18.598;2023-02-21T02:37:55;99109.59;;;6.26;71.15
57048;BME280;42934;54.294;18.598;2023-02-21T02:40:31;99113.91;;;6.27;71.25
57048;BME280;42934;54.294;18.598;2023-02-21T02:43:08;99104.25;;;6.29;70.30
57048;BME280;42934;54.294;18.598;2023-02-21T02:45:43;99099.03;;;6.29;70.35
57048;BME280;42934;54.294;18.598;2023-02-21T02:48:15;99099.88;;;6.29;70.79
57048;BME280;42934;54.294;18.598;2023-02-21T02:50:50;99104.38;;;6.26;70.15
57048;BME280;42934;54.294;18.598;2023-02-21T02:53:22;99096.50;;;6.27;70.42
57048;BME280;42934;54.294;18.598;2023-02-21T02:55:56;99126.16;;;6.25;70.15
57048;BME280;42934;54.294;18.598;2023-02-21T02:58:30;99106.16;;;6.25;70.09
57048;BME280;42934;54.294;18.598;2023-02-21T03:01:13;99105.19;;;6.28;70.33
57048;BME280;42934;54.294;18.598;2023-02-21T03:03:57;99102.63;;;6.26;70.62
57048;BME280;42934;54.294;18.598;2023-02-21T03:06:36;99109.66;;;6.24;70.85
57048;BME280;42934;54.294;18.598;2023-02-21T03:09:15;99120.03;;;6.26;70.60
57048;BME280;42934;54.294;18.598;2023-02-21T03:11:52;99136.47;;;6.28;70.65
57048;BME280;42934;54.294;18.598;2023-02-21T03:14:28;99136.63;;;6.23;70.55
57048;BME280;42934;54.294;18.598;2023-02-21T03:17:01;99141.00;;;6.23;71.46
57048;BME280;42934;54.294;18.598;2023-02-21T03:19:37;99130.66;;;6.21;71.22
57048;BME280;42934;54.294;18.598;2023-02-21T03:22:11;99144.44;;;6.23;71.24
57048;BME280;42934;54.294;18.598;2023-02-21T03:24:42;99140.16;;;6.22;71.68
57048;BME280;42934;54.294;18.598;2023-02-21T03:27:13;99146.16;;;6.24;71.51
57048;BME280;42934;54.294;18.598;2023-02-21T03:29:52;99158.34;;;6.24;70.59
57048;BME280;42934;54.294;18.598;2023-02-21T03:32:25;99163.59;;;6.22;70.91
57048;BME280;42934;54.294;18.598;2023-02-21T03:34:55;99172.28;;;6.23;71.48
57048;BME280;42934;54.294;18.598;2023-02-21T03:37:33;99177.38;;;6.26;70.89
57048;BME280;42934;54.294;18.598;2023-02-21T03:40:04;99165.28;;;6.23;70.83
57048;BME280;42934;54.294;18.598;2023-02-21T03:42:34;99179.97;;;6.26;70.64
57048;BME280;42934;54.294;18.598;2023-02-21T03:45:04;99181.81;;;6.24;70.62
57048;BME280;42934;54.294;18.598;2023-02-21T03:47:33;99173.91;;;6.25;70.02
57048;BME280;42934;54.294;18.598;2023-02-21T03:50:03;99168.69;;;6.25;70.15
57048;BME280;42934;54.294;18.598;2023-02-21T03:52:36;99199.94;;;6.27;69.93
57048;BME280;42934;54.294;18.598;2023-02-21T03:55:05;99188.72;;;6.25;70.05
57048;BME280;42934;54.294;18.598;2023-02-21T03:57:35;99190.41;;;6.26;70.08
57048;BME280;42934;54.294;18.598;2023-02-21T04:00:05;99188.63;;;6.26;69.99
57048;BME280;42934;54.294;18.598;2023-02-21T04:02:41;99198.09;;;6.29;69.93
57048;BME280;42934;54.294;18.598;2023-02-21T04:05:20;99193.84;;;6.26;69.83
57048;BME280;42934;54.294;18.598;2023-02-21T04:07:50;99192.00;;;6.30;69.98
57048;BME280;42934;54.294;18.598;2023-02-21T04:10:19;99181.63;;;6.28;69.37
57048;BME280;42934;54.294;18.598;2023-02-21T04:12:49;99197.31;;;6.27;69.95
57048;BME280;42934;54.294;18.598;2023-02-21T04:15:18;99192.97;;;6.27;70.06
57048;BME280;42934;54.294;18.598;2023-02-21T04:17:47;99182.53;;;6.27;70.52
57048;BME280;42934;54.294;18.598;2023-02-21T04:20:16;99194.59;;;6.30;70.46
57048;BME280;42934;54.294;18.598;2023-02-21T04:22:51;99183.31;;;6.29;70.97
57048;BME280;42934;54.294;18.598;2023-02-21T04:25:30;99194.59;;;6.30;71.08
57048;BME280;42934;54.294;18.598;2023-02-21T04:28:04;99207.75;;;6.27;70.42
57048;BME280;42934;54.294;18.598;2023-02-21T04:30:33;99192.13;;;6.27;70.91
57048;BME280;42934;54.294;18.598;2023-02-21T04:33:02;99195.56;;;6.27;71.50
57048;BME280;42934;54.294;18.598;2023-02-21T04:35:31;99188.59;;;6.28;71.58
57048;BME280;42934;54.294;18.598;2023-02-21T04:38:07;99199.06;;;6.26;71.59
57048;BME280;42934;54.294;18.598;2023-02-21T04:40:36;99193.00;;;6.26;71.84
57048;BME280;42934;54.294;18.598;2023-02-21T04:43:05;99192.16;;;6.25;70.95
57048;BME280;42934;54.294;18.598;2023-02-21T04:45:34;99203.44;;;6.26;71.74
57048;BME280;42934;54.294;18.598;2023-02-21T04:48:04;99193.91;;;6.25;71.52
57048;BME280;42934;54.294;18.598;2023-02-21T04:50:33;99213.97;;;6.23;72.13
57048;BME280;42934;54.294;18.598;2023-02-21T04:53:02;99209.69;;;6.22;71.30
57048;BME280;42934;54.294;18.598;2023-02-21T04:55:32;99199.25;;;6.22;71.88
57048;BME280;42934;54.294;18.598;2023-02-21T04:58:01;99220.94;;;6.22;71.87
57048;BME280;42934;54.294;18.598;2023-02-21T05:00:30;99207.13;;;6.20;71.68
57048;BME280;42934;54.294;18.598;2023-02-21T05:02:59;99203.63;;;6.21;72.32
57048;BME280;42934;54.294;18.598;2023-02-21T05:05:27;99215.81;;;6.21;71.84
57048;BME280;42934;54.294;18.598;2023-02-21T05:07:57;99212.28;;;6.22;71.66
57048;BME280;42934;54.294;18.598;2023-02-21T05:10:25;99211.44;;;6.21;72.44
57048;BME280;42934;54.294;18.598;2023-02-21T05:13:13;99231.38;;;6.22;72.07
57048;BME280;42934;54.294;18.598;2023-02-21T05:15:42;99219.97;;;6.25;71.85
57048;BME280;42934;54.294;18.598;2023-02-21T05:18:11;99228.66;;;6.25;71.76
57048;BME280;42934;54.294;18.598;2023-02-21T05:20:40;99237.44;;;6.23;71.92
57048;BME280;42934;54.294;18.598;2023-02-21T05:23:09;99230.53;;;6.22;71.76
57048;BME280;42934;54.294;18.598;2023-02-21T05:25:40;99242.63;;;6.23;71.70
57048;BME280;42934;54.294;18.598;2023-02-21T05:28:09;99235.66;;;6.23;71.56
57048;BME280;42934;54.294;18.598;2023-02-21T05:30:39;99243.47;;;6.23;71.45
57048;BME280;42934;54.294;18.598;2023-02-21T05:33:09;99254.00;;;6.22;71.88
57048;BME280;42934;54.294;18.598;2023-02-21T05:35:37;99252.19;;;6.24;72.23
57048;BME280;42934;54.294;18.598;2023-02-21T05:38:06;99246.06;;;6.25;71.54
57048;BME280;42934;54.294;18.598;2023-02-21T05:40:35;99258.16;;;6.26;72.24
57048;BME280;42934;54.294;18.598;2023-02-21T05:43:05;99266.06;;;6.24;72.38
57048;BME280;42934;54.294;18.598;2023-02-21T05:45:33;99273.88;;;6.24;72.13
57048;BME280;42934;54.294;18.598;2023-02-21T05:48:04;99254.78;;;6.24;72.19
57048;BME280;42934;54.294;18.598;2023-02-21T05:50:33;99271.31;;;6.23;72.71
57048;BME280;42934;54.294;18.598;2023-02-21T05:53:02;99267.88;;;6.22;72.88
57048;BME280;42934;54.294;18.598;2023-02-21T05:55:31;99276.47;;;6.24;72.20
57048;BME280;42934;54.294;18.598;2023-02-21T05:58:00;99279.09;;;6.24;72.08
57048;BME280;42934;54.294;18.598;2023-02-21T06:00:30;99279.19;;;6.21;71.89
57048;BME280;42934;54.294;18.598;2023-02-21T06:02:59;99283.56;;;6.21;72.06
57048;BME280;42934;54.294;18.598;2023-02-21T06:05:32;99300.06;;;6.21;71.83
57048;BME280;42934;54.294;18.598;2023-02-21T06:08:02;99298.28;;;6.22;72.17
57048;BME280;42934;54.294;18.598;2023-02-21T06:10:30;99301.84;;;6.19;72.80
57048;BME280;42934;54.294;18.598;2023-02-21T06:12:59;99318.22;;;6.23;71.78
57048;BME280;42934;54.294;18.598;2023-02-21T06:15:28;99320.69;;;6.27;72.27
57048;BME280;42934;54.294;18.598;2023-02-21T06:17:57;99322.44;;;6.27;72.81
57048;BME280;42934;54.294;18.598;2023-02-21T06:20:26;99330.38;;;6.24;71.87
57048;BME280;42934;54.294;18.598;2023-02-21T06:22:57;99329.50;;;6.23;72.17
57048;BME280;42934;54.294;18.598;2023-02-21T06:25:25;99328.63;;;6.24;72.85
57048;BME280;42934;54.294;18.598;2023-02-21T06:27:54;99334.66;;;6.25;72.32
57048;BME280;42934;54.294;18.598;2023-02-21T06:30:23;99331.16;;;6.26;72.48
57048;BME280;42934;54.294;18.598;2023-02-21T06:32:52;99356.31;;;6.27;73.07
57048;BME280;42934;54.294;18.598;2023-02-21T06:35:22;99352.06;;;6.24;72.61
57048;BME280;42934;54.294;18.598;2023-02-21T06:37:51;99345.94;;;6.25;72.08
57048;BME280;42934;54.294;18.598;2023-02-21T06:40:21;99358.03;;;6.28;72.46
57048;BME280;42934;54.294;18.598;2023-02-21T06:42:50;99371.78;;;6.31;73.05
57048;BME280;42934;54.294;18.598;2023-02-21T06:45:19;99365.72;;;6.31;73.21
57048;BME280;42934;54.294;18.598;2023-02-21T06:47:48;99371.78;;;6.31;72.62
57048;BME280;42934;54.294;18.598;2023-02-21T06:50:17;99377.06;;;6.30;73.33
57048;BME280;42934;54.294;18.598;2023-02-21T06:52:46;99394.44;;;6.29;72.74
57048;BME280;42934;54.294;18.598;2023-02-21T06:55:21;99389.28;;;6.28;72.95
57048;BME280;42934;54.294;18.598;2023-02-21T06:57:52;99398.81;;;6.29;73.11
57048;BME280;42934;54.294;18.598;2023-02-21T07:00:21;99406.59;;;6.30;72.58
57048;BME280;42934;54.294;18.598;2023-02-21T07:02:50;99397.03;;;6.29;72.47
57048;BME280;42934;54.294;18.598;2023-02-21T07:05:19;99404.03;;;6.29;72.76
57048;BME280;42934;54.294;18.598;2023-02-21T07:07:48;99412.66;;;6.31;73.61
57048;BME280;42934;54.294;18.598;2023-02-21T07:10:17;99417.06;;;6.29;72.92
57048;BME280;42934;54.294;18.598;2023-02-21T07:12:48;99428.25;;;6.32;72.79
57048;BME280;42934;54.294;18.598;2023-02-21T07:15:16;99425.66;;;6.32;73.04
57048;BME280;42934;54.294;18.598;2023-02-21T07:17:46;99442.13;;;6.33;72.55
57048;BME280;42934;54.294;18.598;2023-02-21T07:20:14;99437.75;;;6.33;73.56
57048;BME280;42934;54.294;18.598;2023-02-21T07:22:43;99450.00;;;6.31;73.50
57048;BME280;42934;54.294;18.598;2023-02-21T07:25:14;99446.41;;;6.35;73.39
57048;BME280;42934;54.294;18.598;2023-02-21T07:27:46;99452.44;;;6.36;73.46
57048;BME280;42934;54.294;18.598;2023-02-21T07:30:15;99454.22;;;6.35;73.27
57048;BME280;42934;54.294;18.598;2023-02-21T07:32:44;99463.75;;;6.35;73.60
57048;BME280;42934;54.294;18.598;2023-02-21T07:35:13;99467.19;;;6.37;73.06
57048;BME280;42934;54.294;18.598;2023-02-21T07:37:42;99468.09;;;6.36;73.47
57048;BME280;42934;54.294;18.598;2023-02-21T07:40:11;99464.53;;;6.39;72.81
57048;BME280;42934;54.294;18.598;2023-02-21T07:42:41;99475.75;;;6.41;73.46
57048;BME280;42934;54.294;18.598;2023-02-21T07:45:13;99481.91;;;6.38;73.78
57048;BME280;42934;54.294;18.598;2023-02-21T07:47:43;99487.94;;;6.40;73.26
57048;BME280;42934;54.294;18.598;2023-02-21T07:50:15;99479.25;;;6.40;73.66
57048;BME280;42934;54.294;18.598;2023-02-21T07:52:45;99487.09;;;6.40;73.38
57048;BME280;42934;54.294;18.598;2023-02-21T07:55:14;99487.94;;;6.40;73.03
57048;BME280;42934;54.294;18.598;2023-02-21T07:57:43;99490.44;;;6.43;73.12
57048;BME280;42934;54.294;18.598;2023-02-21T08:00:14;99491.25;;;6.45;72.78
57048;BME280;42934;54.294;18.598;2023-02-21T08:02:46;99506.72;;;6.50;73.38
57048;BME280;42934;54.294;18.598;2023-02-21T08:05:17;99492.78;;;6.51;73.08
57048;BME280;42934;54.294;18.598;2023-02-21T08:07:47;99499.66;;;6.53;73.00
57048;BME280;42934;54.294;18.598;2023-02-21T08:10:20;99506.41;;;6.59;73.59
57048;BME280;42934;54.294;18.598;2023-02-21T08:12:50;99513.38;;;6.58;73.17
57048;BME280;42934;54.294;18.598;2023-02-21T08:15:20;99512.41;;;6.61;72.80
57048;BME280;42934;54.294;18.598;2023-02-21T08:17:50;99508.91;;;6.62;73.11
57048;BME280;42934;54.294;18.598;2023-02-21T08:20:19;99515.81;;;6.63;73.04
57048;BME280;42934;54.294;18.598;2023-02-21T08:22:48;99503.59;;;6.65;72.33
57048;BME280;42934;54.294;18.598;2023-02-21T08:25:17;99514.78;;;6.69;73.05
57048;BME280;42934;54.294;18.598;2023-02-21T08:27:46;99520.84;;;6.69;72.65
57048;BME280;42934;54.294;18.598;2023-02-21T08:30:21;99532.00;;;6.73;72.41
57048;BME280;42934;54.294;18.598;2023-02-21T08:32:52;99528.44;;;6.75;72.39
57048;BME280;42934;54.294;18.598;2023-02-21T08:35:21;99528.44;;;6.75;72.91
57048;BME280;42934;54.294;18.598;2023-02-21T08:37:50;99537.06;;;6.77;72.61
57048;BME280;42934;54.294;18.598;2023-02-21T08:40:24;99543.09;;;6.79;72.33
57048;BME280;42934;54.294;18.598;2023-02-21T08:42:53;99555.25;;;6.79;71.76
57048;BME280;42934;54.294;18.598;2023-02-21T08:45:25;99548.25;;;6.81;72.45
57048;BME280;42934;54.294;18.598;2023-02-21T08:47:55;99558.44;;;6.89;72.18
57048;BME280;42934;54.294;18.598;2023-02-21T08:50:25;99563.69;;;6.87;72.42
57048;BME280;42934;54.294;18.598;2023-02-21T08:52:55;99553.25;;;6.87;72.41
57048;BME280;42934;54.294;18.598;2023-02-21T08:55:24;99564.59;;;6.86;72.04
57048;BME280;42934;54.294;18.598;2023-02-21T08:57:54;99566.38;;;6.86;71.95
57048;BME280;42934;54.294;18.598;2023-02-21T09:00:24;99563.88;;;6.82;72.31
57048;BME280;42934;54.294;18.598;2023-02-21T09:02:56;99579.53;;;6.82;72.56
57048;BME280;42934;54.294;18.598;2023-02-21T09:05:28;99589.97;;;6.82;72.54
57048;BME280;42934;54.294;18.598;2023-02-21T09:07:58;99587.28;;;6.84;72.55
57048;BME280;42934;54.294;18.598;2023-02-21T09:10:29;99581.22;;;6.83;73.16
57048;BME280;42934;54.294;18.598;2023-02-21T09:13:01;99583.72;;;6.87;72.62
57048;BME280;42934;54.294;18.598;2023-02-21T09:15:31;99590.59;;;6.89;73.00
57048;BME280;42934;54.294;18.598;2023-02-21T09:18:00;99602.72;;;6.90;72.27
57048;BME280;42934;54.294;18.598;2023-02-21T09:20:29;99613.22;;;6.89;72.40
57048;BME280;42934;54.294;18.598;2023-02-21T09:22:58;99604.53;;;6.88;72.48
57048;BME280;42934;54.294;18.598;2023-02-21T09:25:27;99611.50;;;6.88;72.08
57048;BME280;42934;54.294;18.598;2023-02-21T09:27:56;99614.06;;;6.89;72.45
57048;BME280;42934;54.294;18.598;2023-02-21T09:30:27;99607.19;;;6.87;72.55
57048;BME280;42934;54.294;18.598;2023-02-21T09:32:58;99615.88;;;6.87;72.23
57048;BME280;42934;54.294;18.598;2023-02-21T09:35:28;99621.94;;;6.88;72.32
57048;BME280;42934;54.294;18.598;2023-02-21T09:37:58;99627.97;;;6.90;73.00
57048;BME280;42934;54.294;18.598;2023-02-21T09:40:33;99633.03;;;6.94;72.19
57048;BME280;42934;54.294;18.598;2023-02-21T09:43:07;99627.81;;;6.94;72.49
57048;BME280;42934;54.294;18.598;2023-02-21T09:45:42;99639.09;;;6.95;72.17
57048;BME280;42934;54.294;18.598;2023-02-21T09:48:16;99638.19;;;6.96;71.88
57048;BME280;42934;54.294;18.598;2023-02-21T09:50:48;99638.25;;;6.94;72.22
57048;BME280;42934;54.294;18.598;2023-02-21T09:53:21;99644.31;;;6.95;72.45
57048;BME280;42934;54.294;18.598;2023-02-21T09:55:54;99654.69;;;6.96;72.81
57048;BME280;42934;54.294;18.598;2023-02-21T09:58:25;99671.16;;;6.98;71.97
57048;BME280;42934;54.294;18.598;2023-02-21T10:00:57;99675.69;;;6.93;72.42
57048;BME280;42934;54.294;18.598;2023-02-21T10:03:39;99684.34;;;6.94;72.32
57048;BME280;42934;54.294;18.598;2023-02-21T10:06:18;99685.22;;;6.94;72.62
57048;BME280;42934;54.294;18.598;2023-02-21T10:08:56;99684.31;;;6.95;72.61
57048;BME280;42934;54.294;18.598;2023-02-21T10:11:40;99683.47;;;6.95;72.71
57048;BME280;42934;54.294;18.598;2023-02-21T10:14:22;99686.97;;;6.94;72.81
57048;BME280;42934;54.294;18.598;2023-02-21T10:17:00;99699.06;;;6.96;72.83
57048;BME280;42934;54.294;18.598;2023-02-21T10:19:35;99703.50;;;6.94;72.90
57048;BME280;42934;54.294;18.598;2023-02-21T10:22:13;99709.56;;;6.95;72.21
57048;BME280;42934;54.294;18.598;2023-02-21T10:24:47;99715.63;;;6.95;72.38
57048;BME280;42934;54.294;18.598;2023-02-21T10:27:18;99709.47;;;6.98;72.69
57048;BME280;42934;54.294;18.598;2023-02-21T10:29:50;99718.16;;;6.98;72.61
57048;BME280;42934;54.294;18.598;2023-02-21T10:32:22;99721.59;;;6.99;72.31
57048;BME280;42934;54.294;18.598;2023-02-21T10:34:54;99732.88;;;6.99;72.79
57048;BME280;42934;54.294;18.598;2023-02-21T10:37:35;99726.00;;;6.97;72.37
57048;BME280;42934;54.294;18.598;2023-02-21T10:40:21;99735.56;;;6.98;72.25
57048;BME280;42934;54.294;18.598;2023-02-21T10:42:55;99731.09;;;7.01;73.02
57048;BME280;42934;54.294;18.598;2023-02-21T10:45:32;99744.00;;;7.06;72.35
57048;BME280;42934;54.294;18.598;2023-02-21T10:48:04;99731.91;;;7.03;72.56
57048;BME280;42934;54.294;18.598;2023-02-21T10:51:03;99736.06;;;7.09;72.53
57048;BME280;42934;54.294;18.598;2023-02-21T10:53:34;99740.41;;;7.09;72.57
57048;BME280;42934;54.294;18.598;2023-02-21T10:56:24;99742.03;;;7.13;72.48
57048;BME280;42934;54.294;18.598;2023-02-21T10:58:57;99743.72;;;7.14;72.21
57048;BME280;42934;54.294;18.598;2023-02-21T11:01:35;99754.91;;;7.17;72.74
57048;BME280;42934;54.294;18.598;2023-02-21T11:04:06;99756.53;;;7.21;72.29
57048;BME280;42934;54.294;18.598;2023-02-21T11:06:38;99759.91;;;7.25;72.26
57048;BME280;42934;54.294;18.598;2023-02-21T11:09:29;99764.28;;;7.24;72.47
57048;BME280;42934;54.294;18.598;2023-02-21T11:12:01;99765.25;;;7.20;72.38
57048;BME280;42934;54.294;18.598;2023-02-21T11:14:31;99767.00;;;7.21;71.78
57048;BME280;42934;54.294;18.598;2023-02-21T11:17:04;99771.28;;;7.22;72.64
57048;BME280;42934;54.294;18.598;2023-02-21T11:19:49;99777.44;;;7.21;72.23
57048;BME280;42934;54.294;18.598;2023-02-21T11:22:23;99770.44;;;7.22;71.67
57048;BME280;42934;54.294;18.598;2023-02-21T11:24:59;99778.22;;;7.23;71.82
57048;BME280;42934;54.294;18.598;2023-02-21T11:27:32;99774.66;;;7.26;72.24
57048;BME280;42934;54.294;18.598;2023-02-21T11:30:10;99780.78;;;7.25;72.28
57048;BME280;42934;54.294;18.598;2023-02-21T11:32:49;99787.72;;;7.26;71.86
57048;BME280;42934;54.294;18.598;2023-02-21T11:35:24;99795.53;;;7.26;71.67
57048;BME280;42934;54.294;18.598;2023-02-21T11:37:57;99797.31;;;7.25;72.04
57048;BME280;42934;54.294;18.598;2023-02-21T11:40:30;99793.94;;;7.22;71.51
57048;BME280;42934;54.294;18.598;2023-02-21T11:43:20;99805.97;;;7.26;71.28
57048;BME280;42934;54.294;18.598;2023-02-21T11:46:08;99812.97;;;7.25;71.15
57048;BME280;42934;54.294;18.598;2023-02-21T11:48:45;99806.91;;;7.25;71.34
57048;BME280;42934;54.294;18.598;2023-02-21T11:51:26;99815.53;;;7.27;71.72
57048;BME280;42934;54.294;18.598;2023-02-21T11:54:00;99812.88;;;7.28;71.43
57048;BME280;42934;54.294;18.598;2023-02-21T11:56:56;99818.16;;;7.27;71.08
57048;BME280;42934;54.294;18.598;2023-02-21T11:59:38;99812.88;;;7.28;70.67
57048;BME280;42934;54.294;18.598;2023-02-21T12:02:42;99814.59;;;7.30;71.73
57048;BME280;42934;54.294;18.598;2023-02-21T12:05:28;99812.88;;;7.28;71.30
57048;BME280;42934;54.294;18.598;2023-02-21T12:08:15;99821.53;;;7.31;71.04
57048;BME280;42934;54.294;18.598;2023-02-21T12:10:53;99825.69;;;7.36;71.33
57048;BME280;42934;54.294;18.598;2023-02-21T12:13:30;99826.53;;;7.37;71.03
57048;BME280;42934;54.294;18.598;2023-02-21T12:16:13;99837.84;;;7.37;70.68
57048;BME280;42934;54.294;18.598;2023-02-21T12:19:01;99814.41;;;7.36;70.64
57048;BME280;42934;54.294;18.598;2023-02-21T12:21:47;99836.84;;;7.41;71.16
57048;BME280;42934;54.294;18.598;2023-02-21T12:24:33;99836.69;;;7.46;70.17
57048;BME280;42934;54.294;18.598;2023-02-21T12:27:13;99844.41;;;7.49;70.80
57048;BME280;42934;54.294;18.598;2023-02-21T12:29:57;99846.06;;;7.51;69.89
57048;BME280;42934;54.294;18.598;2023-02-21T12:32:48;99850.38;;;7.53;70.25
57048;BME280;42934;54.294;18.598;2023-02-21T12:35:51;99846.03;;;7.53;69.71
57048;BME280;42934;54.294;18.598;2023-02-21T12:38:35;99848.53;;;7.56;70.01
57048;BME280;42934;54.294;18.598;2023-02-21T12:41:17;99855.38;;;7.60;69.80
57048;BME280;42934;54.294;18.598;2023-02-21T12:43:59;99852.75;;;7.60;69.38
57048;BME280;42934;54.294;18.598;2023-02-21T12:46:34;99851.81;;;7.63;69.12
57048;BME280;42934;54.294;18.598;2023-02-21T12:49:13;99854.34;;;7.64;69.29
57048;BME280;42934;54.294;18.598;2023-02-21T12:51:47;99855.34;;;7.62;69.05
57048;BME280;42934;54.294;18.598;2023-02-21T12:54:33;99864.78;;;7.64;69.16
57048;BME280;42934;54.294;18.598;2023-02-21T12:57:07;99856.69;;;7.73;68.84
57048;BME280;42934;54.294;18.598;2023-02-21T12:59:49;99852.09;;;7.80;68.46
57048;BME280;42934;54.294;18.598;2023-02-21T13:02:37;99851.38;;;7.75;68.47
57048;BME280;42934;54.294;18.598;2023-02-21T13:05:13;99861.63;;;7.81;67.77
57048;BME280;42934;54.294;18.598;2023-02-21T13:07:47;99857.22;;;7.83;68.69
57048;BME280;42934;54.294;18.598;2023-02-21T13:10:21;99863.06;;;7.90;68.63
57048;BME280;42934;54.294;18.598;2023-02-21T13:12:55;99862.22;;;7.89;68.30
57048;BME280;42934;54.294;18.598;2023-02-21T13:15:28;99869.72;;;8.00;68.25
57048;BME280;42934;54.294;18.598;2023-02-21T13:18:00;99876.41;;;8.07;68.01
57048;BME280;42934;54.294;18.598;2023-02-21T13:20:36;99876.41;;;8.07;68.47
57048;BME280;42934;54.294;18.598;2023-02-21T13:26:34;99883.84;;;8.19;67.97
57048;BME280;42934;54.294;18.598;2023-02-21T13:29:15;99880.66;;;8.35;68.00
57048;BME280;42934;54.294;18.598;2023-02-21T13:31:49;99883.97;;;8.41;68.06
57048;BME280;42934;54.294;18.598;2023-02-21T13:34:27;99886.97;;;8.54;68.12
57048;BME280;42934;54.294;18.598;2023-02-21T13:37:01;99894.34;;;8.68;67.71
57048;BME280;42934;54.294;18.598;2023-02-21T13:39:33;99888.22;;;8.68;67.37
57048;BME280;42934;54.294;18.598;2023-02-21T13:42:07;99908.28;;;8.69;67.45
57048;BME280;42934;54.294;18.598;2023-02-21T13:44:39;99906.53;;;8.68;67.20
57048;BME280;42934;54.294;18.598;2023-02-21T13:47:15;99914.63;;;8.61;67.02
57048;BME280;42934;54.294;18.598;2023-02-21T13:49:50;99915.59;;;8.59;66.81
57048;BME280;42934;54.294;18.598;2023-02-21T13:55:30;99927.41;;;8.46;66.83
57048;BME280;42934;54.294;18.598;2023-02-21T13:58:31;99931.16;;;8.37;66.42